createdAt,value
2023-03-27T00:01:25.443Z,85.72
2023-03-27T00:03:53.375Z,85.70
2023-03-27T00:06:21.766Z,85.27
2023-03-27T00:08:51.026Z,85.88
2023-03-27T00:11:20.531Z,85.53
2023-03-27T00:13:51.134Z,86.49
2023-03-27T00:16:21.487Z,86.29
2023-03-27T00:18:48.754Z,86.70
2023-03-27T00:21:15.966Z,86.42
2023-03-27T00:23:42.898Z,87.33
2023-03-27T00:26:11.797Z,87.29
2023-03-27T00:28:38.897Z,86.81
2023-03-27T00:31:11.804Z,86.60
2023-03-27T00:33:39.576Z,87.15
2023-03-27T00:36:07.543Z,86.77
2023-03-27T00:38:34.654Z,87.12
2023-03-27T00:41:02.115Z,85.97
2023-03-27T00:43:35.589Z,86.19
2023-03-27T00:46:05.806Z,85.78
2023-03-27T00:48:37.360Z,85.83
2023-03-27T00:51:06.038Z,86.73
2023-03-27T00:53:33.634Z,86.26
2023-03-27T00:56:07.626Z,86.34
2023-03-27T00:58:51.175Z,86.73
2023-03-27T01:01:21.676Z,86.51
2023-03-27T01:03:50.023Z,86.41
2023-03-27T01:06:18.695Z,86.19
2023-03-27T01:08:47.536Z,86.69
2023-03-27T01:11:22.202Z,85.84
2023-03-27T01:14:19.867Z,85.54
2023-03-27T01:17:26.230Z,86.49
2023-03-27T01:20:23.489Z,86.34
2023-03-27T01:23:59.734Z,86.75
2023-03-27T01:27:03.419Z,86.44
2023-03-27T01:29:56.567Z,86.78
2023-03-27T01:32:53.969Z,86.28
2023-03-27T01:35:55.374Z,86.47
2023-03-27T01:38:48.128Z,86.84
2023-03-27T01:41:35.212Z,87.01
2023-03-27T01:44:13.377Z,86.97
2023-03-27T01:46:58.265Z,85.57
2023-03-27T01:49:39.940Z,86.47
2023-03-27T01:52:15.929Z,85.71
2023-03-27T01:54:50.253Z,85.91
2023-03-27T01:57:27.210Z,85.58
2023-03-27T02:00:18.670Z,85.50
2023-03-27T02:02:57.250Z,85.40
2023-03-27T02:05:52.992Z,85.48
2023-03-27T02:08:37.569Z,85.40
2023-03-27T02:11:17.516Z,86.17
2023-03-27T02:13:57.519Z,85.81
2023-03-27T02:16:33.542Z,86.07
2023-03-27T02:19:12.284Z,86.27
2023-03-27T02:21:39.235Z,85.92
2023-03-27T02:24:08.887Z,86.03
2023-03-27T02:26:36.186Z,85.95
2023-03-27T02:29:41.764Z,85.05
2023-03-27T02:33:08.914Z,84.43
2023-03-27T02:36:05.140Z,85.02
2023-03-27T02:38:51.444Z,84.74
2023-03-27T02:41:47.943Z,85.58
2023-03-27T02:44:51.613Z,84.88
2023-03-27T02:47:32.518Z,85.15
2023-03-27T02:50:31.745Z,85.46
2023-03-27T02:53:11.927Z,85.40
2023-03-27T02:55:54.961Z,85.29
2023-03-27T02:58:58.320Z,84.62
2023-03-27T03:01:36.377Z,84.80
2023-03-27T03:04:35.682Z,84.26
2023-03-27T03:07:14.332Z,84.78
2023-03-27T03:09:44.518Z,84.73
2023-03-27T03:12:12.135Z,85.02
2023-03-27T03:14:48.819Z,84.78
2023-03-27T03:17:16.943Z,84.68
2023-03-27T03:19:45.421Z,84.29
2023-03-27T03:22:13.221Z,84.52
2023-03-27T03:24:42.193Z,84.49
2023-03-27T03:27:10.950Z,84.18
2023-03-27T03:29:48.465Z,83.87
2023-03-27T03:32:18.708Z,83.70
2023-03-27T03:34:48.616Z,83.92
2023-03-27T03:37:16.197Z,83.77
2023-03-27T03:39:43.146Z,83.40
2023-03-27T03:42:10.169Z,83.43
2023-03-27T03:44:51.498Z,83.15
2023-03-27T03:47:20.609Z,83.48
2023-03-27T03:49:47.665Z,82.95
2023-03-27T03:52:14.699Z,83.16
2023-03-27T03:54:41.998Z,82.75
2023-03-27T03:57:09.059Z,82.97
2023-03-27T03:59:36.273Z,82.81
2023-03-27T04:02:30.526Z,82.72
2023-03-27T04:05:08.758Z,82.60
2023-03-27T04:07:40.532Z,82.62
2023-03-27T04:10:39.446Z,82.10
2023-03-27T04:13:13.413Z,82.32
2023-03-27T04:15:51.307Z,82.03
2023-03-27T04:18:34.903Z,82.28
2023-03-27T04:21:06.043Z,82.56
2023-03-27T04:23:33.750Z,82.45
2023-03-27T04:26:03.168Z,82.70
2023-03-27T04:28:51.662Z,82.39
2023-03-27T04:31:39.048Z,82.16
2023-03-27T04:34:25.231Z,82.20
2023-03-27T04:37:07.947Z,81.93
2023-03-27T04:39:42.642Z,82.41
2023-03-27T04:42:10.638Z,82.25
2023-03-27T04:44:38.852Z,81.91
2023-03-27T04:47:08.745Z,82.12
2023-03-27T04:49:50.734Z,82.47
2023-03-27T04:52:21.960Z,82.42
2023-03-27T04:54:49.398Z,82.21
2023-03-27T04:57:18.931Z,82.35
2023-03-27T04:59:48.605Z,82.38
2023-03-27T05:02:34.355Z,82.49
2023-03-27T05:05:08.943Z,82.01
2023-03-27T05:07:37.363Z,82.02
2023-03-27T05:10:07.416Z,81.94
2023-03-27T05:12:35.175Z,81.78
2023-03-27T05:15:06.151Z,81.57
2023-03-27T05:17:42.069Z,81.62
2023-03-27T05:20:17.230Z,81.33
2023-03-27T05:22:45.564Z,81.54
2023-03-27T05:25:32.604Z,81.42
2023-03-27T05:28:02.866Z,81.98
2023-03-27T05:30:31.940Z,81.67
2023-03-27T05:33:20.649Z,81.51
2023-03-27T05:35:50.028Z,81.65
2023-03-27T05:38:18.045Z,81.40
2023-03-27T05:41:11.781Z,81.54
2023-03-27T05:43:45.308Z,81.27
2023-03-27T05:46:13.608Z,81.58
2023-03-27T05:48:54.116Z,81.25
2023-03-27T05:51:21.494Z,81.45
2023-03-27T05:53:48.874Z,81.56
2023-03-27T05:56:25.344Z,81.60
2023-03-27T05:58:54.885Z,81.49
2023-03-27T06:01:23.764Z,81.52
2023-03-27T06:03:56.017Z,81.51
2023-03-27T06:06:30.535Z,81.61
2023-03-27T06:08:59.340Z,81.66
2023-03-27T06:11:27.974Z,81.56
2023-03-27T06:13:55.770Z,81.45
2023-03-27T06:16:30.547Z,81.31
2023-03-27T06:19:04.295Z,81.72
2023-03-27T06:21:31.571Z,81.71
2023-03-27T06:24:01.242Z,81.97
2023-03-27T06:26:28.270Z,81.70
2023-03-27T06:28:56.488Z,81.91
2023-03-27T06:31:24.345Z,82.02
2023-03-27T06:34:14.964Z,82.22
2023-03-27T06:36:50.100Z,82.47
2023-03-27T06:39:17.758Z,82.21
2023-03-27T06:41:49.587Z,82.85
2023-03-27T06:44:31.976Z,82.58
2023-03-27T06:47:07.154Z,82.67
2023-03-27T06:49:39.209Z,82.70
2023-03-27T06:52:15.058Z,82.81
2023-03-27T06:54:43.586Z,82.77
2023-03-27T06:57:12.328Z,82.92
2023-03-27T07:00:00.916Z,83.23
2023-03-27T07:02:47.439Z,83.43
2023-03-27T07:05:36.744Z,83.51
2023-03-27T07:08:21.795Z,83.35
2023-03-27T07:13:25.675Z,83.54
2023-03-27T07:15:53.576Z,83.56
2023-03-27T07:18:22.394Z,83.41
2023-03-27T07:20:51.223Z,83.53
2023-03-27T07:23:21.955Z,83.19
2023-03-27T07:26:00.154Z,83.49
2023-03-27T07:28:51.762Z,83.98
2023-03-27T07:31:36.506Z,83.74
2023-03-27T07:34:07.230Z,83.61
2023-03-27T07:37:01.546Z,83.73
2023-03-27T07:39:28.852Z,83.74
2023-03-27T07:41:56.033Z,84.11
2023-03-27T07:44:31.830Z,83.92
2023-03-27T07:47:04.300Z,83.79
2023-03-27T07:49:39.297Z,83.93
2023-03-27T07:52:09.555Z,83.97
2023-03-27T07:54:44.346Z,84.21
2023-03-27T07:57:13.758Z,84.51
2023-03-27T07:59:49.520Z,84.52
2023-03-27T08:02:25.005Z,84.55
2023-03-27T08:04:52.624Z,84.67
2023-03-27T08:07:22.508Z,84.82
2023-03-27T08:09:49.507Z,84.89
2023-03-27T08:12:16.475Z,85.32
2023-03-27T08:14:55.173Z,85.58
2023-03-27T08:17:31.469Z,85.84
2023-03-27T08:19:59.442Z,85.97
2023-03-27T08:22:26.679Z,85.69
2023-03-27T08:25:12.658Z,85.28
2023-03-27T08:27:40.520Z,85.25
2023-03-27T08:30:09.188Z,84.90
2023-03-27T08:32:40.301Z,84.91
2023-03-27T08:35:10.358Z,84.92
2023-03-27T08:37:37.655Z,84.44
2023-03-27T08:40:30.764Z,84.18
2023-03-27T08:43:22.116Z,83.60
2023-03-27T08:46:03.564Z,84.03
2023-03-27T08:48:44.244Z,84.66
2023-03-27T08:51:22.360Z,84.80
2023-03-27T08:54:08.975Z,84.28
2023-03-27T08:56:37.343Z,84.67
2023-03-27T08:59:12.375Z,84.84
2023-03-27T09:02:02.433Z,85.06
2023-03-27T09:04:52.897Z,85.55
2023-03-27T09:07:34.541Z,85.84
2023-03-27T09:10:57.692Z,86.21
2023-03-27T09:13:45.696Z,86.34
2023-03-27T09:16:49.191Z,86.36
2023-03-27T09:19:51.852Z,86.09
2023-03-27T09:22:29.621Z,84.94
2023-03-27T09:25:35.700Z,85.26
2023-03-27T09:28:25.600Z,84.77
2023-03-27T09:31:35.863Z,85.38
2023-03-27T09:34:13.635Z,85.06
2023-03-27T09:36:42.140Z,85.08
2023-03-27T09:39:17.119Z,85.47
2023-03-27T09:42:09.121Z,85.37
2023-03-27T09:44:42.358Z,85.39
2023-03-27T09:47:25.358Z,85.28
2023-03-27T09:50:19.509Z,85.09
2023-03-27T09:53:18.929Z,85.50
2023-03-27T09:56:21.358Z,85.84
2023-03-27T09:58:51.894Z,86.16
2023-03-27T10:01:38.253Z,86.66
2023-03-27T10:04:18.379Z,85.82
2023-03-27T10:07:10.107Z,86.30
2023-03-27T10:10:19.783Z,84.86
2023-03-27T10:13:14.082Z,84.10
2023-03-27T10:15:51.100Z,82.65
2023-03-27T10:18:31.376Z,84.01
2023-03-27T10:21:39.441Z,83.44
2023-03-27T10:24:33.535Z,85.23
2023-03-27T10:27:25.851Z,84.39
2023-03-27T10:30:30.650Z,83.63
2023-03-27T10:33:12.927Z,84.14
2023-03-27T10:35:49.654Z,84.37
2023-03-27T10:38:22.750Z,84.35
2023-03-27T10:41:04.181Z,85.14
2023-03-27T10:43:45.973Z,85.60
2023-03-27T10:46:21.561Z,84.46
2023-03-27T10:49:04.062Z,84.55
2023-03-27T10:51:55.985Z,83.60
2023-03-27T10:54:45.411Z,82.60
2023-03-27T10:57:30.074Z,82.15
2023-03-27T11:00:38.020Z,82.55
2023-03-27T11:03:30.855Z,83.29
2023-03-27T11:06:08.113Z,82.94
2023-03-27T11:09:01.876Z,84.01
2023-03-27T11:12:04.504Z,85.59
2023-03-27T11:14:48.413Z,86.24
2023-03-27T11:17:29.689Z,86.73
2023-03-27T11:20:56.421Z,85.49
2023-03-27T11:23:56.381Z,84.98
2023-03-27T11:27:03.605Z,84.84
2023-03-27T11:29:39.480Z,83.34
2023-03-27T11:32:28.772Z,83.40
2023-03-27T11:35:05.754Z,82.29
2023-03-27T11:38:04.853Z,81.78
2023-03-27T11:40:44.689Z,82.03
2023-03-27T11:43:17.056Z,82.63
2023-03-27T11:45:51.750Z,83.16
2023-03-27T11:48:59.575Z,81.91
2023-03-27T11:51:52.728Z,81.25
2023-03-27T11:54:48.313Z,81.16
2023-03-27T11:57:26.931Z,82.16
2023-03-27T12:00:39.941Z,82.84
2023-03-27T12:03:33.523Z,82.58
2023-03-27T12:06:14.637Z,83.22
2023-03-27T12:09:00.909Z,84.01
2023-03-27T12:11:44.880Z,84.98
2023-03-27T12:14:40.678Z,85.93
2023-03-27T12:17:43.963Z,86.31
2023-03-27T12:20:28.827Z,86.43
2023-03-27T12:23:51.534Z,86.74
2023-03-27T12:27:16.963Z,87.60
2023-03-27T12:30:23.385Z,86.88
2023-03-27T12:33:07.118Z,85.61
2023-03-27T12:35:58.252Z,85.58
2023-03-27T12:38:35.528Z,85.09
2023-03-27T12:41:10.871Z,84.26
2023-03-27T12:44:03.610Z,84.05
2023-03-27T12:46:42.152Z,83.85
2023-03-27T12:49:13.579Z,84.16
2023-03-27T12:51:53.647Z,84.38
2023-03-27T12:54:39.745Z,83.87
2023-03-27T12:57:27.190Z,84.04
2023-03-27T13:00:09.304Z,82.75
2023-03-27T13:03:14.235Z,83.54
2023-03-27T13:06:03.602Z,81.28
2023-03-27T13:08:48.375Z,82.13
2023-03-27T13:11:58.757Z,81.13
2023-03-27T13:15:00.383Z,79.81
2023-03-27T13:18:35.687Z,81.27
2023-03-27T13:22:13.462Z,80.08
2023-03-27T13:25:51.311Z,80.21
2023-03-27T13:28:50.606Z,79.03
2023-03-27T13:31:56.709Z,79.55
2023-03-27T13:34:38.381Z,80.33
2023-03-27T13:37:11.784Z,79.75
2023-03-27T13:39:58.683Z,79.74
2023-03-27T13:42:50.358Z,80.65
2023-03-27T13:45:26.449Z,80.00
2023-03-27T13:49:07.740Z,80.95
2023-03-27T13:52:06.894Z,81.06
2023-03-27T13:55:00.660Z,82.84
2023-03-27T13:58:09.312Z,82.65
2023-03-27T14:00:59.541Z,82.62
2023-03-27T14:04:09.041Z,82.96
2023-03-27T14:07:13.822Z,83.25
2023-03-27T14:10:33.127Z,81.12
2023-03-27T14:13:36.500Z,82.14
2023-03-27T14:16:37.474Z,81.54
2023-03-27T14:20:06.619Z,81.85
2023-03-27T14:22:53.327Z,81.62
2023-03-27T14:25:43.725Z,80.83
2023-03-27T14:28:51.296Z,79.57
2023-03-27T14:31:35.200Z,80.42
2023-03-27T14:34:24.737Z,80.93
2023-03-27T14:37:36.326Z,81.23
2023-03-27T14:40:33.027Z,81.49
2023-03-27T14:43:07.165Z,81.73
2023-03-27T14:45:40.075Z,81.71
2023-03-27T14:48:22.875Z,82.08
2023-03-27T14:50:54.722Z,81.78
2023-03-27T14:53:28.284Z,81.80
2023-03-27T14:56:37.416Z,82.59
2023-03-27T14:59:29.852Z,82.98
2023-03-27T15:02:13.408Z,83.31
2023-03-27T15:04:40.809Z,83.42
2023-03-27T15:07:21.576Z,83.01
2023-03-27T15:10:28.018Z,83.07
2023-03-27T15:13:10.531Z,83.25
2023-03-27T15:15:44.155Z,83.15
2023-03-27T15:18:24.532Z,83.38
2023-03-27T15:20:53.917Z,83.90
2023-03-27T15:23:33.529Z,83.59
2023-03-27T15:26:11.971Z,83.51
2023-03-27T15:29:01.133Z,84.04
2023-03-27T15:31:30.058Z,84.72
2023-03-27T15:34:45.909Z,85.05
2023-03-27T15:37:23.237Z,85.05
2023-03-27T15:40:10.948Z,84.54
2023-03-27T15:42:51.444Z,84.34
2023-03-27T15:45:34.156Z,84.30
2023-03-27T15:48:28.943Z,83.99
2023-03-27T15:51:01.700Z,84.29
2023-03-27T15:53:38.312Z,83.88
2023-03-27T15:56:28.383Z,82.66
2023-03-27T15:59:04.914Z,83.74
2023-03-27T16:01:52.163Z,83.66
2023-03-27T16:04:36.213Z,82.35
2023-03-27T16:07:18.954Z,83.34
2023-03-27T16:10:02.817Z,83.37
2023-03-27T16:12:56.909Z,82.82
2023-03-27T16:15:38.877Z,83.41
2023-03-27T16:18:36.735Z,82.82
2023-03-27T16:21:15.151Z,81.71
2023-03-27T16:23:43.869Z,80.72
2023-03-27T16:26:26.490Z,80.62
2023-03-27T16:29:05.006Z,80.65
2023-03-27T16:31:32.030Z,80.43
2023-03-27T16:33:59.828Z,80.27
2023-03-27T16:36:32.510Z,80.28
2023-03-27T16:38:59.657Z,80.87
2023-03-27T16:41:26.634Z,80.58
2023-03-27T16:43:53.559Z,80.89
2023-03-27T16:46:26.661Z,79.60
2023-03-27T16:48:54.801Z,80.68
2023-03-27T16:51:24.612Z,80.53
2023-03-27T16:53:52.843Z,80.78
2023-03-27T16:56:20.739Z,80.59
2023-03-27T16:58:48.487Z,80.85
2023-03-27T17:01:16.166Z,80.71
2023-03-27T17:03:43.942Z,80.84
2023-03-27T17:06:12.756Z,80.67
2023-03-27T17:08:39.817Z,80.36
2023-03-27T17:11:13.504Z,80.39
2023-03-27T17:13:43.396Z,80.09
2023-03-27T17:16:11.441Z,80.39
2023-03-27T17:18:38.650Z,80.09
2023-03-27T17:21:05.925Z,80.40
2023-03-27T17:23:33.203Z,79.98
2023-03-27T17:26:03.850Z,79.68
2023-03-27T17:28:32.561Z,79.64
2023-03-27T17:31:04.613Z,80.02
2023-03-27T17:33:33.257Z,79.47
2023-03-27T17:36:00.882Z,79.50
2023-03-27T17:38:28.452Z,78.72
2023-03-27T17:40:55.630Z,79.27
2023-03-27T17:43:22.593Z,79.49
2023-03-27T17:45:51.006Z,79.41
2023-03-27T17:48:18.862Z,78.93
2023-03-27T17:50:58.018Z,79.09
2023-03-27T17:53:34.538Z,79.11
2023-03-27T17:56:02.146Z,78.61
2023-03-27T17:58:29.079Z,78.56
2023-03-27T18:00:56.342Z,78.42
2023-03-27T18:03:23.985Z,78.43
2023-03-27T18:05:52.106Z,78.39
2023-03-27T18:08:19.930Z,77.89
2023-03-27T18:10:50.498Z,77.43
2023-03-27T18:13:18.926Z,77.68
2023-03-27T18:15:46.511Z,77.95
2023-03-27T18:18:13.466Z,77.72
2023-03-27T18:20:41.112Z,77.88
2023-03-27T18:23:08.609Z,77.34
2023-03-27T18:25:35.739Z,77.42
2023-03-27T18:28:03.376Z,77.60
2023-03-27T18:30:32.353Z,77.28
2023-03-27T18:32:59.440Z,77.42
2023-03-27T18:35:26.469Z,77.34
2023-03-27T18:37:53.412Z,77.13
2023-03-27T18:40:20.939Z,77.18
2023-03-27T18:42:48.066Z,77.01
2023-03-27T18:45:16.845Z,76.87
2023-03-27T18:47:44.864Z,77.33
2023-03-27T18:50:14.289Z,76.91
2023-03-27T18:52:42.294Z,76.95
2023-03-27T18:55:11.002Z,76.96
2023-03-27T18:57:38.370Z,77.14
2023-03-27T19:00:15.003Z,76.79
2023-03-27T19:02:42.666Z,77.11
2023-03-27T19:05:10.491Z,76.74
2023-03-27T19:07:37.698Z,76.85
2023-03-27T19:10:12.766Z,76.95
2023-03-27T19:12:39.917Z,76.88
2023-03-27T19:15:25.709Z,76.79
2023-03-27T19:18:16.190Z,76.80
2023-03-27T19:21:02.052Z,76.67
2023-03-27T19:23:42.751Z,76.80
2023-03-27T19:26:13.351Z,76.44
2023-03-27T19:28:43.953Z,76.58
2023-03-27T19:31:13.459Z,76.62
2023-03-27T19:33:42.787Z,76.49
2023-03-27T19:36:10.372Z,76.44
2023-03-27T19:38:38.501Z,76.55
2023-03-27T19:41:09.968Z,76.67
2023-03-27T19:43:40.308Z,76.80
2023-03-27T19:46:16.386Z,76.64
2023-03-27T19:48:45.634Z,76.57
2023-03-27T19:51:22.967Z,76.75
2023-03-27T19:53:51.760Z,76.69
2023-03-27T19:56:22.419Z,76.28
2023-03-27T19:58:49.456Z,76.45
2023-03-27T20:01:19.683Z,76.66
2023-03-27T20:03:47.391Z,76.43
2023-03-27T20:06:18.783Z,76.37
2023-03-27T20:08:46.247Z,76.72
2023-03-27T20:11:15.728Z,76.25
2023-03-27T20:13:55.614Z,76.64
2023-03-27T20:16:26.210Z,75.28
2023-03-27T20:18:55.489Z,76.58
2023-03-27T20:21:24.724Z,76.61
2023-03-27T20:23:55.606Z,76.35
2023-03-27T20:26:39.102Z,76.24
2023-03-27T20:29:20.169Z,75.86
2023-03-27T20:31:48.038Z,76.39
2023-03-27T20:34:19.029Z,76.22
2023-03-27T20:36:46.468Z,76.23
2023-03-27T20:39:44.464Z,76.30
2023-03-27T20:42:17.308Z,75.92
2023-03-27T20:44:46.344Z,76.30
2023-03-27T20:47:15.001Z,75.98
2023-03-27T20:49:45.507Z,76.25
2023-03-27T20:52:16.945Z,76.24
2023-03-27T20:54:44.245Z,76.14
2023-03-27T20:57:12.883Z,76.46
2023-03-27T20:59:39.890Z,76.24
2023-03-27T21:02:07.036Z,76.20
2023-03-27T21:04:34.168Z,75.84
2023-03-27T21:07:01.155Z,76.01
2023-03-27T21:09:28.141Z,75.79
2023-03-27T21:11:56.193Z,75.97
2023-03-27T21:14:23.369Z,75.74
2023-03-27T21:16:50.469Z,76.03
2023-03-27T21:19:20.537Z,75.93
2023-03-27T21:21:47.832Z,76.00
2023-03-27T21:24:15.400Z,76.17
2023-03-27T21:26:42.466Z,75.68
2023-03-27T21:29:10.735Z,75.85
2023-03-27T21:31:41.451Z,75.70
2023-03-27T21:34:08.708Z,75.56
2023-03-27T21:36:37.773Z,76.14
2023-03-27T21:39:05.627Z,75.78
2023-03-27T21:41:32.731Z,75.84
2023-03-27T21:43:59.696Z,75.76
2023-03-27T21:46:26.790Z,75.98
2023-03-27T21:48:53.881Z,75.98
2023-03-27T21:51:20.939Z,76.08
2023-03-27T21:53:48.062Z,76.05
2023-03-27T21:56:15.264Z,75.99
2023-03-27T21:58:42.271Z,76.16
2023-03-27T22:01:09.280Z,76.02
2023-03-27T22:03:36.228Z,76.05
2023-03-27T22:06:11.802Z,76.11
2023-03-27T22:08:41.134Z,76.21
2023-03-27T22:11:08.579Z,76.03
2023-03-27T22:13:37.264Z,75.89
2023-03-27T22:16:13.379Z,75.59
2023-03-27T22:18:41.264Z,75.89
2023-03-27T22:21:22.225Z,75.38
2023-03-27T22:23:50.856Z,76.00
2023-03-27T22:26:20.332Z,76.22
2023-03-27T22:28:47.792Z,76.22
2023-03-27T22:31:14.828Z,75.98
2023-03-27T22:33:41.916Z,75.76
2023-03-27T22:36:11.698Z,75.98
2023-03-27T22:38:39.493Z,76.31
2023-03-27T22:41:08.993Z,75.87
2023-03-27T22:43:36.520Z,76.29
2023-03-27T22:46:13.637Z,75.88
2023-03-27T22:48:41.275Z,76.41
2023-03-27T22:51:10.346Z,76.57
2023-03-27T22:53:38.202Z,76.34
2023-03-27T22:56:07.178Z,75.83
2023-03-27T22:58:34.442Z,76.06
2023-03-27T23:01:04.391Z,75.97
2023-03-27T23:03:31.473Z,75.66
2023-03-27T23:05:58.685Z,76.15
2023-03-27T23:08:27.744Z,76.03
2023-03-27T23:11:04.474Z,75.64
2023-03-27T23:13:34.605Z,76.08
2023-03-27T23:16:01.816Z,76.13
2023-03-27T23:18:29.091Z,75.97
2023-03-27T23:21:02.528Z,76.01
2023-03-27T23:23:31.630Z,76.01
2023-03-27T23:25:59.115Z,76.37
2023-03-27T23:28:30.283Z,76.07
2023-03-27T23:31:01.073Z,75.76
2023-03-27T23:33:32.943Z,76.09
2023-03-27T23:36:07.363Z,76.23
2023-03-27T23:38:35.130Z,76.08
2023-03-27T23:41:02.904Z,76.07
2023-03-27T23:43:31.184Z,76.29
2023-03-27T23:45:59.456Z,76.19
2023-03-27T23:48:28.540Z,76.13
2023-03-27T23:50:57.039Z,76.13
2023-03-27T23:53:27.632Z,76.14
2023-03-27T23:55:56.578Z,76.18
2023-03-27T23:58:28.521Z,76.07
